Langley, SC

7:34 AM EDT on September 23, 2014 (GMT -0400)
Aiken, SC | Change Station
CLOSE
Current Station
Personal Weather Station
Location: Aiken, SC
Elevation: 472 ft
Nearby Weather Stations

Elev 472 ft 33.49 °N, 81.77 °W | Updated 1 minute ago

Mostly Cloudy
Mostly Cloudy
63.5 °F
Feels Like 63.5 °F
N
0.0
Wind Variable Wind from ENE
Gusts 2.0 mph

Today
High -- | Low -- °F
--% Chance of Precip.
Yesterday
High -- | Low -- °F
Precip. -- in
7:16 AM 7:22 PM
Waning Crescent, 1% visible
Pressure 30.14 in
Visibility 10.0 miles
Clouds Mostly Cloudy 3600 ft
Overcast 4500 ft
Dew Point 61 °F
Humidity 90%
Rainfall 0.00 in
Snow Depth Not available.
UV 0.0 out of 12
Pollen 7.40 out of 12
Ozone Good
PM2.5 Good
Flu Activity Not available.
METAR KDNL 231053Z AUTO 05009KT 10SM BKN036 OVC045 19/16 A3015 RMK AO2 SLP207 T01890156

More Conditions Fewer Conditions

Pressure 30.14 in
Visibility 10.0 miles
Clouds Mostly Cloudy 3600 ft
Overcast 4500 ft
Dew Point 61 °F
Humidity 90%
Rainfall 0.00 in
Snow Depth Not available.
UV 0.0 out of 12
Pollen 7.40 out of 12
Ozone Good
PM2.5 Good
Flu Activity Not available.
METAR KDNL 231053Z AUTO 05009KT 10SM BKN036 OVC045 19/16 A3015 RMK AO2 SLP207 T01890156

More Conditions Fewer Conditions

10-Day Weather Forecast

Almanac

Astronomy

Sep. 23, 2014 Rise Set
Actual Time 7:16 AM EDT 7:22 PM EDT
Civil Twilight 6:51 AM EDT 7:47 PM EDT
Nautical Twilight 6:22 AM EDT 8:16 PM EDT
Astronomical Twilight 5:53 AM EDT 8:45 PM EDT
Moon 6:39 AM EDT 7:01 PM EDT
Length of Visible Light 12h 56m
Length of Day
12h 06m
Tomorrow will be 2m 4s shorter.
Waning Crescent, 1% of the Moon is Illuminated
Today
Waning Crescent
Sep 24
New
Oct 1
First Quarter
Oct 8
Full
Oct 15
Last Quarter

Today's Extremes

State Highs State Lows

Community

WunderPhotos

Upload Photos

1,755,644 photos uploaded!

Nearby

Air Quality

  Air Quality AQ Index Pollutant
Yesterday Good
PM2.5
Yesterday Good
OZONE
Current Good
PM2.5
Current Good
OZONE
Tuesday Good
OZONE

Snow Depth

Station Depth Elevation
No new snow has been reported.

Earthquake Activity

City Distance Mag. Time & Date
No recent earthquake activity has been reported nearby.
Minimum magnitude displayed is 2.5.

Coastal Water Temperatures

Place Temperature
No Stations Reporting

Nearby Weather Stations